Time;durP1;ratioP1;P1;durP2;ratioP2;P2;SDS_P1;SDS_P2;PMS_P1;PMS_P2;Temp;Humidity;BMP_temperature;BMP_pressure;BME280_temperature;BME280_humidity;BME280_pressure;Samples;Min_cycle;Max_cycle;Signal;HPM_P1;HPM_P2
2022/06/18 00:00:35;;;;;;;;;17.25;15.25;;;;;25.25;51.33;100998.03;146607;630;46008;-80
2022/06/18 00:03:28;;;;;;;;;9.50;7.50;;;;;25.21;50.08;100996.31;146606;570;46010;-72
2022/06/18 00:06:20;;;;;;;;;13.75;11.50;;;;;25.12;52.64;100996.31;146608;609;46025;-72
2022/06/18 00:09:16;;;;;;;;;10.75;10.00;;;;;24.98;53.44;101008.72;146608;623;46008;-78
2022/06/18 00:15:36;;;;;;;;;13.00;13.00;;;;;24.93;53.75;101026.47;146607;660;46008;-86
2022/06/18 00:18:29;;;;;;;;;11.50;10.75;;;;;24.95;53.87;101017.59;146606;588;46017;-89
2022/06/18 00:21:25;;;;;;;;;10.50;10.50;;;;;24.96;54.70;101016.72;146604;734;46018;-79
2022/06/18 00:24:23;;;;;;;;;10.25;9.75;;;;;24.94;54.29;101005.22;146606;685;46020;-83
2022/06/18 00:27:16;;;;;;;;;11.75;10.00;;;;;24.98;54.59;101016.69;146605;599;46010;-84
2022/06/18 00:30:14;;;;;;;;;13.50;12.75;;;;;24.97;53.32;100999.91;146606;662;46020;-77
2022/06/18 00:33:06;;;;;;;;;9.25;9.25;;;;;24.99;52.88;100998.12;146607;565;47010;-74
2022/06/18 00:36:04;;;;;;;;;12.00;11.00;;;;;24.98;51.70;100991.03;146606;579;47008;-75
2022/06/18 00:38:56;;;;;;;;;11.75;9.00;;;;;24.97;51.75;100996.37;146609;651;46008;-74
2022/06/18 00:41:51;;;;;;;;;9.75;9.75;;;;;24.94;52.44;100986.66;146608;647;46010;-75
2022/06/18 00:44:52;;;;;;;;;10.00;9.00;;;;;24.91;52.53;100978.69;146605;568;47008;-74
2022/06/18 00:48:14;;;;;;;;;11.75;10.00;;;;;24.87;52.38;100985.78;146607;574;46008;-75
2022/06/18 00:51:18;;;;;;;;;7.75;6.50;;;;;24.85;52.58;100987.56;146605;579;47008;-74
2022/06/18 00:54:30;;;;;;;;;7.00;7.00;;;;;24.85;52.50;100973.41;146606;662;46010;-80
2022/06/18 00:57:31;;;;;;;;;6.25;6.25;;;;;24.81;52.43;100975.19;146605;600;46008;-83
2022/06/18 01:00:28;;;;;;;;;9.50;7.50;;;;;24.75;52.81;100971.69;146606;571;46008;-82
2022/06/18 01:03:38;;;;;;;;;7.75;7.00;;;;;24.66;52.87;100967.28;146604;607;46019;-81
2022/06/18 01:06:34;;;;;;;;;8.25;6.25;;;;;24.59;53.09;100966.44;146606;677;46008;-76
2022/06/18 01:09:26;;;;;;;;;8.25;6.25;;;;;24.57;52.94;100956.72;146608;627;47008;-74
2022/06/18 01:12:18;;;;;;;;;7.75;7.75;;;;;24.54;53.38;100959.37;146606;675;46020;-75
2022/06/18 01:15:13;;;;;;;;;8.50;8.00;;;;;24.53;53.35;100961.12;146608;570;46008;-74
2022/06/18 01:18:07;;;;;;;;;8.50;7.25;;;;;24.53;53.46;100963.78;146609;696;46020;-76
2022/06/18 01:21:40;;;;;;;;;7.25;7.25;;;;;23.36;53.11;100753.78;146609;634;46008;-74
2022/06/18 01:24:38;;;;;;;;;10.50;9.50;;;;;24.46;53.35;100939.97;146606;606;46024;-80
2022/06/18 01:27:31;;;;;;;;;7.50;7.50;;;;;24.42;53.46;100949.66;146607;606;46010;-77
2022/06/18 01:30:25;;;;;;;;;6.75;6.75;;;;;24.45;54.00;100954.97;146608;586;47009;-85
2022/06/18 01:33:18;;;;;;;;;8.25;7.00;;;;;24.49;53.84;100950.56;146603;648;46018;-73
2022/06/18 01:36:13;;;;;;;;;8.25;8.00;;;;;24.50;53.98;100936.41;146609;714;46020;-73
2022/06/18 01:39:13;;;;;;;;;7.75;7.50;;;;;24.50;53.88;100954.97;146609;595;46008;-72
2022/06/18 01:42:37;;;;;;;;;7.75;6.25;;;;;23.62;53.69;100805.81;146605;626;46020;-72
2022/06/18 01:45:35;;;;;;;;;8.75;8.75;;;;;24.51;54.20;100959.37;146606;683;46019;-79
2022/06/18 01:48:35;;;;;;;;;9.00;7.00;;;;;24.43;55.44;100954.97;146606;566;46008;-77
2022/06/18 01:51:36;;;;;;;;;9.50;8.50;;;;;24.32;55.20;100938.16;146608;563;46010;-86
2022/06/18 01:54:35;;;;;;;;;9.33;8.33;;;;;24.23;56.00;100938.19;146608;581;46008;-85
2022/06/18 01:57:33;;;;;;;;;7.25;7.00;;;;;24.12;56.55;100943.50;146607;652;46924;-81
2022/06/18 02:00:30;;;;;;;;;10.00;7.25;;;;;24.03;57.58;100956.75;146607;669;46008;-79
2022/06/18 02:03:22;;;;;;;;;10.75;10.75;;;;;23.98;57.73;100955.87;146607;564;46010;-76
2022/06/18 02:06:15;;;;;;;;;8.25;8.25;;;;;23.93;57.51;100952.34;146608;584;46020;-77
2022/06/18 02:09:31;;;;;;;;;8.00;8.00;;;;;23.88;57.14;100954.09;146608;656;46018;-77
2022/06/18 02:12:26;;;;;;;;;6.00;6.00;;;;;23.84;56.96;100955.87;146607;621;46008;-77
2022/06/18 02:15:25;;;;;;;;;9.00;7.75;;;;;23.77;57.43;100956.78;146608;610;46924;-78
2022/06/18 02:18:20;;;;;;;;;5.25;5.25;;;;;23.72;57.64;100951.44;146607;565;46021;-77
2022/06/18 02:21:16;;;;;;;;;5.33;5.33;;;;;23.68;57.99;100944.38;146608;578;46018;-77
2022/06/18 02:24:09;;;;;;;;;7.00;6.33;;;;;23.63;58.41;100958.47;146607;603;47008;-76
2022/06/18 02:27:02;;;;;;;;;4.75;4.75;;;;;23.58;58.50;100962.84;146604;676;46010;-76
2022/06/18 02:29:55;;;;;;;;;5.75;5.50;;;;;23.50;58.78;100969.03;146607;587;46008;-75
2022/06/18 02:33:29;;;;;;;;;6.33;5.33;;;;;22.29;57.35;100767.69;146608;598;46010;-75
2022/06/18 02:36:26;;;;;;;;;4.50;4.25;;;;;23.41;59.07;100966.38;146607;564;47008;-75
2022/06/18 02:39:42;;;;;;;;;5.33;3.67;;;;;23.39;58.52;100964.59;146609;606;46008;-75
2022/06/18 02:42:38;;;;;;;;;6.50;6.50;;;;;23.35;59.24;100961.06;146607;668;46008;-75
2022/06/18 02:45:33;;;;;;;;;6.00;6.00;;;;;23.34;59.09;100969.00;146607;565;46018;-76
2022/06/18 02:48:35;;;;;;;;;6.00;5.25;;;;;23.34;58.42;100961.94;146609;630;46008;-76
2022/06/18 02:51:27;;;;;;;;;8.00;7.00;;;;;23.34;59.55;100964.59;146609;669;46008;-78
2022/06/18 02:54:22;;;;;;;;;8.00;6.75;;;;;23.31;59.29;100958.41;146607;609;46020;-78
2022/06/18 02:57:32;;;;;;;;;8.00;7.50;;;;;23.32;58.02;100954.88;146604;661;46018;-71
2022/06/18 03:00:24;;;;;;;;;9.25;7.50;;;;;23.33;59.70;100951.34;146606;667;46010;-74
2022/06/18 03:03:18;;;;;;;;;7.50;6.50;;;;;23.31;59.32;100948.72;146607;571;46008;-74
2022/06/18 03:06:12;;;;;;;;;7.50;7.50;;;;;23.28;60.67;100948.69;146607;652;46008;-75
2022/06/18 03:09:05;;;;;;;;;5.25;5.25;;;;;23.25;59.88;100940.75;146607;599;47008;-73
2022/06/18 03:12:07;;;;;;;;;8.25;8.25;;;;;23.25;59.33;100941.63;146608;682;46008;-72
2022/06/18 03:14:59;;;;;;;;;12.75;11.00;;;;;23.31;59.16;100935.47;146607;691;46019;-72
2022/06/18 03:17:51;;;;;;;;;9.25;8.25;;;;;23.33;58.28;100919.59;146604;563;46020;-73
2022/06/18 03:21:27;;;;;;;;;11.00;9.75;;;;;22.18;56.65;100718.31;146609;594;46008;-72
2022/06/18 03:24:19;;;;;;;;;9.75;8.00;;;;;23.41;58.48;100925.78;146605;636;46021;-72
2022/06/18 03:27:13;;;;;;;;;8.50;7.25;;;;;23.43;59.08;100934.63;146606;578;46018;-72
2022/06/18 03:30:05;;;;;;;;;8.50;8.50;;;;;23.41;59.74;100941.66;146607;660;46021;-74
2022/06/18 03:32:57;;;;;;;;;11.00;10.25;;;;;23.36;59.79;100939.00;146606;564;47010;-73
2022/06/18 03:35:52;;;;;;;;;11.25;8.25;;;;;23.31;60.29;100932.84;146605;583;46010;-73
2022/06/18 03:38:44;;;;;;;;;7.00;7.00;;;;;23.27;60.50;100936.31;146604;659;46019;-72
2022/06/18 03:41:37;;;;;;;;;10.00;10.00;;;;;23.24;60.78;100928.37;146607;687;46010;-72
2022/06/18 03:44:29;;;;;;;;;10.75;7.75;;;;;23.21;61.59;100928.41;146607;635;46018;-81
2022/06/18 03:47:23;;;;;;;;;7.25;6.25;;;;;23.10;62.06;100916.91;146607;619;46020;-82
2022/06/18 03:50:20;;;;;;;;;8.75;8.25;;;;;23.01;61.86;100918.63;146609;595;46018;-76
2022/06/18 03:53:13;;;;;;;;;8.00;7.75;;;;;22.97;62.30;100911.56;146610;664;46008;-73
2022/06/18 03:56:05;;;;;;;;;6.50;5.25;;;;;22.93;62.97;100917.69;146607;658;46018;-73
2022/06/18 03:58:58;;;;;;;;;7.00;6.75;;;;;22.90;63.46;100914.16;146607;584;46010;-73
2022/06/18 04:01:51;;;;;;;;;7.75;7.75;;;;;22.88;63.72;100926.50;146608;563;46008;-75
2022/06/18 04:04:44;;;;;;;;;9.75;9.25;;;;;22.89;63.02;100925.59;146607;665;47008;-75
2022/06/18 04:07:36;;;;;;;;;7.00;7.00;;;;;22.96;62.48;100933.62;146609;574;46008;-75
2022/06/18 04:10:28;;;;;;;;;7.50;7.50;;;;;23.05;62.23;100931.00;146608;637;46008;-74
2022/06/18 04:13:22;;;;;;;;;8.00;8.00;;;;;23.22;61.30;100925.75;146609;706;46019;-75
2022/06/18 04:16:14;;;;;;;;;9.00;7.75;;;;;23.35;61.84;100937.25;146610;615;46010;-72
2022/06/18 04:19:06;;;;;;;;;8.00;8.00;;;;;23.51;60.69;100933.72;146610;650;46008;-71
2022/06/18 04:21:58;;;;;;;;;9.00;8.00;;;;;23.63;60.81;100932.88;146604;573;46021;-72
2022/06/18 04:24:51;;;;;;;;;9.50;9.50;;;;;23.69;59.90;100939.97;146609;567;46008;-72
2022/06/18 04:27:43;;;;;;;;;11.25;11.25;;;;;23.72;59.42;100930.28;146609;584;46010;-72
2022/06/18 04:30:36;;;;;;;;;10.00;9.00;;;;;23.74;60.06;100936.47;146610;601;46008;-72
2022/06/18 04:33:28;;;;;;;;;8.50;8.00;;;;;23.72;59.20;100935.56;146609;565;46006;-72
2022/06/18 04:36:41;;;;;;;;;11.75;10.75;;;;;23.72;58.32;100945.28;146609;564;46924;-75
2022/06/18 04:39:33;;;;;;;;;10.75;8.25;;;;;23.73;59.17;100947.03;146608;626;46008;-78
2022/06/18 04:42:26;;;;;;;;;8.25;8.00;;;;;23.77;59.72;100964.72;146607;697;46008;-76
2022/06/18 04:45:19;;;;;;;;;10.25;9.50;;;;;23.79;59.56;100954.09;146607;570;46008;-84
2022/06/18 04:48:11;;;;;;;;;8.00;7.00;;;;;23.81;60.31;100960.28;146608;585;46010;-83
2022/06/18 04:51:03;;;;;;;;;10.00;9.00;;;;;23.81;60.18;100950.56;146607;680;46020;-83
2022/06/18 04:53:56;;;;;;;;;9.00;9.00;;;;;23.83;60.28;100961.16;146609;572;46010;-85
2022/06/18 04:56:48;;;;;;;;;8.50;8.50;;;;;23.82;59.86;100959.41;146609;584;45020;-81
2022/06/18 04:59:41;;;;;;;;;9.00;7.50;;;;;23.84;59.62;100961.19;146611;582;45018;-77
2022/06/18 05:02:33;;;;;;;;;8.25;7.25;;;;;23.91;59.29;100968.22;146618;630;46020;-78
2022/06/18 05:05:29;;;;;;;;;9.00;8.00;;;;;23.91;59.57;100962.94;146612;612;47925;-78
2022/06/18 05:08:21;;;;;;;;;8.75;8.25;;;;;23.88;59.02;100962.06;146614;564;46021;-79
2022/06/18 05:11:13;;;;;;;;;7.75;7.75;;;;;23.89;58.90;100964.69;146619;636;46008;-78
2022/06/18 05:14:05;;;;;;;;;8.25;8.25;;;;;23.89;59.30;100967.34;146620;669;45021;-79
2022/06/18 05:16:58;;;;;;;;;8.00;7.50;;;;;23.93;59.85;100969.13;146622;570;45018;-80
2022/06/18 05:19:50;;;;;;;;;8.00;7.75;;;;;23.92;59.27;100959.37;146622;621;45020;-74
2022/06/18 05:22:42;;;;;;;;;8.25;7.25;;;;;23.88;59.46;100968.22;146616;594;46018;-73
2022/06/18 05:25:35;;;;;;;;;8.00;7.00;;;;;23.86;59.87;100974.41;146621;570;46020;-74
2022/06/18 05:28:27;;;;;;;;;7.25;7.25;;;;;23.83;59.91;100970.00;146621;609;46008;-73
2022/06/18 05:31:19;;;;;;;;;10.75;8.75;;;;;23.81;59.83;100969.13;146620;626;45020;-73
2022/06/18 05:34:12;;;;;;;;;8.00;7.00;;;;;23.81;59.82;100971.75;146624;626;46008;-72
2022/06/18 05:37:04;;;;;;;;;8.00;7.25;;;;;23.79;60.03;100972.63;146618;563;46021;-84
2022/06/18 05:39:56;;;;;;;;;8.25;8.25;;;;;23.78;60.14;100986.78;146620;671;46008;-71
2022/06/18 05:42:48;;;;;;;;;6.50;6.50;;;;;23.80;60.09;100979.69;146619;564;46010;-73
2022/06/18 05:45:42;;;;;;;;;11.00;9.75;;;;;23.84;60.05;100979.72;146615;600;46018;-73
2022/06/18 05:48:34;;;;;;;;;10.25;8.50;;;;;23.93;59.90;100976.19;146613;570;46020;-78
2022/06/18 05:51:26;;;;;;;;;10.00;9.25;;;;;24.10;59.98;100978.81;146621;564;45018;-69
2022/06/18 05:54:18;;;;;;;;;9.75;8.75;;;;;24.37;59.16;100983.22;146615;688;46020;-77
2022/06/18 05:57:11;;;;;;;;;10.75;10.50;;;;;24.64;58.00;100983.22;146614;633;45018;-79
2022/06/18 06:00:09;;;;;;;;;11.75;10.00;;;;;24.90;56.86;100976.94;146617;611;46010;-82
2022/06/18 06:03:02;;;;;;;;;9.75;9.25;;;;;25.15;56.19;100982.19;146618;609;46008;-78
2022/06/18 06:05:54;;;;;;;;;10.25;9.00;;;;;25.35;55.67;100983.81;146617;564;46010;-80
2022/06/18 06:08:46;;;;;;;;;12.50;11.75;;;;;25.59;54.93;100981.94;146610;589;45018;-78
2022/06/18 06:11:38;;;;;;;;;12.50;12.50;;;;;25.82;54.37;100983.56;146610;692;46021;-79
2022/06/18 06:14:30;;;;;;;;;14.00;13.00;;;;;25.96;53.40;100974.62;146616;706;46008;-77
2022/06/18 06:17:28;;;;;;;;;11.75;10.00;;;;;26.19;53.12;100981.50;146606;582;45912;-77
2022/06/18 06:20:28;;;;;;;;;13.50;13.00;;;;;26.37;52.33;100976.00;146613;599;45046;-78
2022/06/18 06:23:20;;;;;;;;;11.50;11.25;;;;;26.54;51.75;100972.31;146611;609;45049;-72
2022/06/18 06:26:34;;;;;;;;;13.75;13.75;;;;;25.61;50.28;100783.66;146610;600;46008;-72
2022/06/18 06:29:26;;;;;;;;;17.75;16.50;;;;;26.83;47.89;100972.03;146609;593;46021;-73
2022/06/18 06:32:18;;;;;;;;;21.75;21.00;;;;;26.85;45.80;100943.59;146605;591;46018;-80
2022/06/18 06:35:11;;;;;;;;;15.00;13.25;;;;;27.21;47.60;100973.34;146609;682;46010;-78
2022/06/18 06:38:04;;;;;;;;;18.75;16.50;;;;;27.45;45.81;100974.81;146609;571;46010;-81
2022/06/18 06:40:56;;;;;;;;;16.50;16.00;;;;;27.67;46.54;100973.56;146608;593;45038;-86
2022/06/18 06:43:48;;;;;;;;;18.00;17.50;;;;;27.94;44.75;100966.94;146612;588;46008;-74
2022/06/18 06:46:40;;;;;;;;;16.75;16.00;;;;;28.17;44.31;100960.34;146608;650;46008;-82
2022/06/18 06:49:32;;;;;;;;;15.75;15.75;;;;;28.34;43.98;100966.25;146609;574;46019;-77
2022/06/18 06:52:25;;;;;;;;;15.75;15.25;;;;;28.46;44.85;100959.84;146611;576;45020;-79
2022/06/18 06:58:37;;;;;;;;;16.50;15.50;;;;;28.81;44.29;100960.94;146610;570;45022;-74
2022/06/18 07:01:29;;;;;;;;;20.50;19.50;;;;;28.25;43.97;100833.09;146610;681;45018;-73
2022/06/18 07:04:22;;;;;;;;;17.00;15.50;;;;;29.16;42.41;100955.78;146611;621;45020;-74
2022/06/18 07:07:19;;;;;;;;;20.00;20.00;;;;;29.23;42.59;100948.50;146610;580;46010;-77
2022/06/18 07:10:12;;;;;;;;;21.75;20.50;;;;;29.32;43.20;100958.09;146608;598;46020;-79
2022/06/18 07:13:04;;;;;;;;;16.25;15.75;;;;;29.44;43.47;100953.34;146607;576;47018;-80
2022/06/18 07:15:57;;;;;;;;;20.75;19.75;;;;;29.62;42.07;100954.72;146610;579;46020;-79
2022/06/18 07:18:50;;;;;;;;;17.50;17.00;;;;;29.72;41.72;100960.75;146605;571;46019;-77
2022/06/18 07:21:42;;;;;;;;;18.75;18.00;;;;;29.81;42.81;100963.19;146607;632;46008;-81
2022/06/18 07:24:34;;;;;;;;;20.50;18.25;;;;;29.94;42.71;100958.44;146609;576;45018;-82
2022/06/18 07:27:26;;;;;;;;;18.00;16.50;;;;;30.11;41.28;100958.84;146609;603;46020;-78
2022/06/18 07:30:18;;;;;;;;;19.00;18.25;;;;;30.18;41.05;100950.66;146610;596;46008;-79
2022/06/18 07:33:11;;;;;;;;;17.00;16.50;;;;;30.01;40.44;100959.16;146610;680;46008;-78
2022/06/18 07:36:04;;;;;;;;;15.00;15.00;;;;;29.59;41.87;100965.44;146610;604;46018;-79
2022/06/18 07:38:56;;;;;;;;;10.25;10.25;;;;;29.22;44.16;100968.09;146610;583;46020;-78
2022/06/18 07:41:53;;;;;;;;;14.75;14.75;;;;;28.96;45.20;100971.28;146613;597;45019;-78
2022/06/18 07:44:46;;;;;;;;;16.75;16.75;;;;;28.99;44.03;100971.22;146607;622;46020;-79
2022/06/18 07:47:38;;;;;;;;;20.25;19.00;;;;;29.21;43.15;100961.00;146606;618;46018;-77
2022/06/18 07:50:30;;;;;;;;;15.50;15.25;;;;;29.29;41.43;100955.50;146609;706;46008;-78
2022/06/18 07:53:24;;;;;;;;;20.75;19.00;;;;;29.16;42.20;100950.44;146610;593;45924;-78
2022/06/18 07:56:20;;;;;;;;;19.75;16.75;;;;;28.97;42.03;100938.34;146608;609;46021;-79
2022/06/18 07:59:12;;;;;;;;;19.25;17.50;;;;;28.74;43.00;100944.16;146609;595;46008;-77
2022/06/18 08:02:05;;;;;;;;;16.75;16.75;;;;;28.56;45.33;100948.06;146610;673;46008;-78
2022/06/18 08:04:57;;;;;;;;;12.25;12.00;;;;;28.44;46.99;100961.66;146610;727;46008;-78
2022/06/18 08:07:50;;;;;;;;;12.00;11.50;;;;;28.23;47.46;100962.91;146609;575;46010;-79
2022/06/18 08:10:43;;;;;;;;;11.75;11.50;;;;;28.04;47.64;100965.00;146610;615;46009;-79
2022/06/18 08:13:36;;;;;;;;;15.25;15.25;;;;;27.85;46.93;100960.00;146610;571;46008;-78
2022/06/18 08:16:28;;;;;;;;;14.50;13.75;;;;;27.81;48.53;100965.38;146607;585;46018;-78
2022/06/18 08:19:21;;;;;;;;;17.25;16.00;;;;;27.82;44.89;100959.13;146609;673;46008;-78
2022/06/18 08:22:13;;;;;;;;;19.00;18.75;;;;;27.85;45.07;100957.31;146606;575;46924;-78
2022/06/18 08:25:05;;;;;;;;;21.25;18.75;;;;;27.95;45.06;100960.72;146609;576;46008;-78
2022/06/18 08:27:59;;;;;;;;;19.25;18.25;;;;;28.04;44.62;100959.69;146607;571;46018;-77
2022/06/18 08:30:52;;;;;;;;;20.25;19.25;;;;;28.13;45.27;100962.19;146611;578;45030;-78
2022/06/18 08:33:44;;;;;;;;;18.75;17.25;;;;;27.82;46.94;100893.44;146608;576;46008;-78
2022/06/18 08:36:37;;;;;;;;;18.75;16.75;;;;;28.32;46.20;100960.06;146608;619;46020;-79
2022/06/18 08:39:29;;;;;;;;;17.00;15.75;;;;;28.37;45.72;100954.66;146610;564;46019;-79
2022/06/18 08:42:58;;;;;;;;;18.75;17.75;;;;;28.39;46.95;100959.03;146610;595;46008;-79
2022/06/18 08:46:15;;;;;;;;;21.25;18.75;;;;;27.38;46.43;100783.16;146607;646;46008;-78
2022/06/18 08:49:31;;;;;;;;;18.00;17.00;;;;;28.50;45.23;100969.53;146609;588;45021;-79
2022/06/18 08:53:18;;;;;;;;;18.00;16.25;;;;;28.41;48.40;100973.28;146610;582;46008;-76
2022/06/18 08:56:37;;;;;;;;;15.00;15.00;;;;;28.21;48.91;100970.03;146609;626;45021;-85
2022/06/18 09:00:29;;;;;;;;;15.50;14.50;;;;;26.98;48.72;100795.28;146608;609;45022;-80
2022/06/18 09:04:00;;;;;;;;;14.00;14.00;;;;;27.80;49.28;100980.50;146610;572;46008;-80
2022/06/18 09:07:45;;;;;;;;;13.50;12.00;;;;;27.75;49.50;100978.75;146606;678;46018;-85
2022/06/18 09:11:09;;;;;;;;;16.00;14.00;;;;;27.82;50.35;100980.44;146607;695;46021;-83
2022/06/18 09:14:38;;;;;;;;;17.75;17.50;;;;;27.69;49.95;100982.41;146611;607;46008;-83
2022/06/18 09:17:58;;;;;;;;;15.25;15.25;;;;;26.51;51.00;100799.50;146611;646;46008;-84
2022/06/18 09:20:57;;;;;;;;;17.00;15.00;;;;;27.48;50.93;100980.97;146613;566;46008;-85
2022/06/18 09:24:16;;;;;;;;;16.50;15.00;;;;;27.49;51.17;100980.03;146610;647;46021;-84
2022/06/18 09:27:20;;;;;;;;;16.00;15.00;;;;;27.45;50.87;100983.66;146611;571;46010;-84
2022/06/18 09:30:27;;;;;;;;;15.25;14.25;;;;;27.39;50.45;100973.97;146611;583;45020;-83
2022/06/18 09:33:42;;;;;;;;;18.25;14.00;;;;;26.39;51.14;100800.53;146612;593;46010;-82
2022/06/18 09:36:48;;;;;;;;;13.00;12.25;;;;;27.45;50.99;100977.47;146608;575;46020;-82
2022/06/18 09:39:48;;;;;;;;;14.25;13.00;;;;;27.34;49.33;100977.59;146609;646;46018;-84
2022/06/18 09:43:25;;;;;;;;;15.75;14.00;;;;;25.29;50.23;100659.19;146611;620;45050;-85
2022/06/18 09:46:28;;;;;;;;;14.25;14.25;;;;;27.27;49.81;100974.12;146607;594;46924;-83
2022/06/18 09:49:21;;;;;;;;;15.50;14.00;;;;;27.36;50.56;100975.81;146609;564;46020;-85
2022/06/18 09:52:39;;;;;;;;;16.50;16.00;;;;;27.40;49.25;100969.53;146608;574;46011;-85
2022/06/18 09:55:42;;;;;;;;;15.50;14.00;;;;;27.56;48.99;100964.84;146609;625;46008;-83
2022/06/18 09:58:41;;;;;;;;;17.00;15.00;;;;;27.83;49.15;100974.25;146607;599;46018;-84
2022/06/18 10:02:06;;;;;;;;;13.75;13.75;;;;;27.12;48.93;100790.66;146613;662;45021;-84
2022/06/18 10:08:14;;;;;;;;;19.75;17.50;;;;;28.63;46.92;100948.81;146610;599;46008;-84
2022/06/18 10:11:07;;;;;;;;;18.75;17.25;;;;;28.94;46.48;100960.66;146611;578;46018;-84
2022/06/18 10:14:11;;;;;;;;;16.25;16.25;;;;;29.23;45.91;100943.16;146610;575;46008;-84
2022/06/18 10:17:54;;;;;;;;;19.75;18.75;;;;;29.50;46.69;100951.44;146609;595;46018;-84
2022/06/18 10:20:57;;;;;;;;;16.00;16.00;;;;;29.69;43.78;100952.81;146610;611;46010;-85
2022/06/18 10:24:30;;;;;;;;;14.50;14.50;;;;;29.77;46.82;100942.78;146611;615;46009;-83
2022/06/18 10:27:40;;;;;;;;;16.25;15.50;;;;;29.88;45.26;100943.41;146611;616;45020;-86
2022/06/18 10:31:00;;;;;;;;;15.75;15.75;;;;;30.03;46.29;100938.56;146611;579;45924;-83
2022/06/18 10:34:41;;;;;;;;;17.50;16.75;;;;;30.06;45.81;100935.81;146608;646;46020;-84
2022/06/18 10:38:11;;;;;;;;;15.75;14.75;;;;;30.09;46.17;100931.28;146610;661;45924;-83
2022/06/18 10:41:30;;;;;;;;;17.75;17.75;;;;;30.18;43.44;100935.50;146611;591;46008;-83
2022/06/18 10:45:13;;;;;;;;;15.00;15.00;;;;;30.22;45.54;100936.31;146606;587;48925;-83
2022/06/18 10:48:12;;;;;;;;;18.75;18.75;;;;;30.33;44.47;100936.94;146612;594;45020;-86
2022/06/18 10:51:06;;;;;;;;;16.00;15.25;;;;;30.39;43.99;100934.09;146608;580;46018;-86
2022/06/18 10:54:06;;;;;;;;;17.75;17.00;;;;;30.42;43.80;100925.97;146602;629;46020;-85
2022/06/18 10:56:59;;;;;;;;;19.50;17.00;;;;;30.43;44.51;100940.22;146610;564;45924;-83
2022/06/18 10:59:51;;;;;;;;;15.75;15.00;;;;;30.38;43.68;100935.00;146610;579;45021;-86
2022/06/18 11:02:44;;;;;;;;;18.75;17.25;;;;;30.37;42.99;100934.16;146608;634;46018;-85
2022/06/18 11:05:39;;;;;;;;;20.25;17.00;;;;;30.36;43.42;100926.13;146631;569;45011;-84
2022/06/18 11:08:38;;;;;;;;;17.50;17.50;;;;;30.35;44.44;100927.94;146631;590;45010;-84
2022/06/18 11:11:38;;;;;;;;;17.50;17.25;;;;;30.26;43.63;100930.88;146633;565;45008;-84
2022/06/18 11:14:31;;;;;;;;;14.75;14.50;;;;;30.21;44.14;100930.09;146628;566;45019;-84
2022/06/18 11:17:43;;;;;;;;;18.25;16.50;;;;;30.21;43.31;100924.75;146628;672;46008;-85
2022/06/18 11:20:36;;;;;;;;;17.75;17.50;;;;;30.22;43.51;100936.31;146627;578;45027;-83
2022/06/18 11:23:29;;;;;;;;;15.75;15.75;;;;;30.23;44.07;100930.06;146620;751;49011;-85
2022/06/18 11:26:23;;;;;;;;;18.00;16.75;;;;;30.28;43.26;100923.69;146625;652;45924;-85
2022/06/18 11:29:25;;;;;;;;;19.25;17.25;;;;;30.33;45.17;100919.06;146629;601;45021;-86
2022/06/18 11:32:55;;;;;;;;;16.25;14.25;;;;;30.45;45.16;100920.53;146631;588;45010;-83
2022/06/18 11:35:50;;;;;;;;;16.75;16.00;;;;;30.59;42.99;100921.03;146626;626;45010;-84
2022/06/18 11:38:44;;;;;;;;;16.00;15.00;;;;;30.70;41.90;100920.72;146627;569;45018;-85
2022/06/18 11:41:46;;;;;;;;;16.75;15.50;;;;;30.74;42.48;100913.47;146627;616;45027;-86
2022/06/18 11:44:57;;;;;;;;;14.50;13.75;;;;;30.63;42.50;100911.13;146629;601;45026;-85
2022/06/18 11:48:13;;;;;;;;;19.00;18.75;;;;;30.46;43.43;100905.34;146625;589;45020;-86
2022/06/18 11:51:28;;;;;;;;;14.00;13.50;;;;;29.54;42.40;100763.44;146629;583;45010;-84
2022/06/18 11:54:46;;;;;;;;;17.50;15.75;;;;;29.32;43.46;100737.31;146630;569;45010;-85
2022/06/18 11:57:51;;;;;;;;;17.75;17.25;;;;;30.26;43.41;100904.13;146627;593;45019;-83
2022/06/18 12:01:15;;;;;;;;;18.50;15.75;;;;;30.31;44.03;100902.22;146627;589;45021;-84
2022/06/18 12:04:39;;;;;;;;;15.25;14.50;;;;;30.35;43.88;100901.19;146620;642;46008;-79
2022/06/18 12:07:45;;;;;;;;;19.50;18.25;;;;;30.38;43.11;100905.59;146610;590;45021;-78
2022/06/18 12:11:09;;;;;;;;;18.75;18.75;;;;;30.40;43.27;100902.84;146608;582;46008;-82
2022/06/18 12:14:22;;;;;;;;;18.75;16.00;;;;;30.48;43.01;100908.88;146604;597;46021;-79
2022/06/18 12:17:54;;;;;;;;;16.00;15.00;;;;;29.66;41.88;100739.09;146605;566;46008;-79
2022/06/18 12:21:05;;;;;;;;;12.25;12.25;;;;;30.68;43.11;100906.47;146608;615;46008;-79
2022/06/18 12:24:11;;;;;;;;;21.25;17.25;;;;;30.61;42.72;100905.78;146607;571;46010;-81
2022/06/18 12:27:15;;;;;;;;;16.25;15.75;;;;;30.52;42.13;100903.38;146608;635;46008;-80
2022/06/18 12:30:50;;;;;;;;;16.75;16.00;;;;;30.42;43.39;100909.91;146604;665;46018;-78
2022/06/18 12:34:25;;;;;;;;;19.75;16.75;;;;;30.40;43.84;100902.84;146608;581;46008;-81
2022/06/18 12:37:56;;;;;;;;;17.75;16.50;;;;;30.40;42.39;100903.72;146606;699;46008;-79
2022/06/18 12:41:15;;;;;;;;;19.00;19.00;;;;;30.42;43.96;100903.69;146607;571;46010;-81
2022/06/18 12:45:08;;;;;;;;;20.75;18.25;;;;;30.48;43.78;100911.56;146607;633;47008;-80
2022/06/18 12:48:38;;;;;;;;;18.50;17.50;;;;;30.60;44.44;100901.37;146606;595;47008;-80
2022/06/18 12:52:22;;;;;;;;;15.25;15.25;;;;;29.65;43.25;100742.69;146605;667;46019;-80
2022/06/18 12:55:52;;;;;;;;;17.50;17.50;;;;;30.55;41.72;100902.41;146604;569;46020;-77
2022/06/18 12:59:28;;;;;;;;;15.00;14.50;;;;;30.46;42.96;100895.53;146606;583;47008;-80
2022/06/18 13:02:47;;;;;;;;;17.75;15.25;;;;;30.42;41.61;100883.16;146605;569;46008;-78
2022/06/18 13:06:17;;;;;;;;;15.25;15.25;;;;;29.70;42.04;100738.09;146625;593;46010;-79
2022/06/18 13:10:03;;;;;;;;;18.50;18.50;;;;;30.15;41.55;100810.75;146630;573;46008;-79
2022/06/18 13:13:36;;;;;;;;;20.00;19.50;;;;;29.54;42.88;100716.22;146621;581;46010;-80
2022/06/18 13:16:47;;;;;;;;;20.00;19.75;;;;;30.32;41.41;100879.88;146631;687;45010;-78
2022/06/18 13:19:51;;;;;;;;;19.00;18.75;;;;;30.19;42.25;100881.13;146627;644;46008;-79
2022/06/18 13:22:43;;;;;;;;;18.50;17.00;;;;;30.21;42.21;100875.75;146629;589;46008;-78
2022/06/18 13:29:12;;;;;;;;;18.00;17.50;;;;;30.21;43.18;100876.59;146628;622;45011;-79
2022/06/18 13:33:00;;;;;;;;;18.50;17.25;;;;;30.24;42.58;100871.19;146626;589;46010;-80
2022/06/18 13:36:18;;;;;;;;;17.25;16.75;;;;;30.39;42.19;100877.91;146631;599;45009;-79
2022/06/18 13:39:44;;;;;;;;;20.50;19.75;;;;;29.65;42.85;100729.31;146626;598;45010;-79
2022/06/18 13:43:06;;;;;;;;;18.50;18.50;;;;;30.51;41.71;100868.66;146628;585;45021;-78
2022/06/18 13:46:40;;;;;;;;;19.50;19.25;;;;;30.29;40.12;100850.53;146629;565;46008;-79
2022/06/18 13:49:55;;;;;;;;;18.00;17.50;;;;;30.31;41.33;100877.22;146632;579;44020;-79
2022/06/18 13:52:49;;;;;;;;;19.25;19.25;;;;;30.22;40.62;100874.81;146629;664;45010;-78
2022/06/18 13:55:44;;;;;;;;;16.00;16.00;;;;;30.15;40.78;100877.63;146629;614;45010;-79
2022/06/18 13:58:42;;;;;;;;;17.00;17.00;;;;;30.15;41.54;100876.75;146628;615;45010;-77
2022/06/18 14:01:50;;;;;;;;;19.25;17.50;;;;;30.15;41.82;100877.63;146631;569;45010;-79
2022/06/18 14:04:44;;;;;;;;;21.50;21.00;;;;;30.09;42.10;100872.47;146615;703;45019;-79
2022/06/18 14:07:44;;;;;;;;;22.75;21.25;;;;;30.04;42.04;100869.03;146609;566;46010;-79